| time (UTC) | temp F | wind direction | speed MPH | gust MPH | rain 1hr in | rain 24hr in | rain mn in | humidity % | barometer mb |
| 20260507015511 | 46 | 352 | 3.0 | 6.0 | 0.00 | 0.36 | 0.00 | 87 | 1012.7 |
| 20260507014532 | 46 | 325 | 4.0 | 8.0 | 0.00 | 0.37 | 0.00 | 87 | 1012.5 |
| 20260507014007 | 46 | 352 | 3.0 | 8.0 | 0.00 | 0.38 | 0.00 | 87 | 1012.5 |
| 20260507013507 | 46 | 9 | 4.0 | 8.0 | 0.00 | 0.40 | 0.00 | 87 | 1012.6 |
| 20260507013019 | 46 | 350 | 4.0 | 7.0 | 0.00 | 0.40 | 0.00 | 86 | 1012.6 |
| 20260507012512 | 46 | 350 | 3.0 | 8.0 | 0.00 | 0.41 | 0.00 | 87 | 1012.6 |
| 20260507012006 | 46 | 334 | 4.0 | 8.0 | 0.00 | 0.42 | 0.00 | 86 | 1012.5 |
| 20260507011526 | 46 | 351 | 3.0 | 8.0 | 0.00 | 0.42 | 0.00 | 86 | 1012.5 |
| 20260507011007 | 46 | 307 | 4.0 | 8.0 | 0.00 | 0.43 | 0.00 | 86 | 1012.4 |
| 20260507010506 | 46 | 346 | 3.0 | 8.0 | 0.00 | 0.44 | 0.00 | 86 | 1012.4 |
| 20260507010019 | 46 | 5 | 3.0 | 5.0 | 0.00 | 0.44 | 0.00 | 86 | 1012.4 |
| 20260507005507 | 46 | 351 | 3.0 | 5.0 | 0.00 | 0.45 | 0.00 | 86 | 1012.4 |
| 20260507003022 | 46 | 321 | 5.0 | 9.0 | 0.00 | 0.48 | 0.00 | 86 | 1012.3 |
| 20260507002507 | 47 | 360 | 1.0 | 6.0 | 0.00 | 0.48 | 0.00 | 86 | 1012.2 |
| 20260507002012 | 47 | 309 | 3.0 | 6.0 | 0.00 | 0.49 | 0.00 | 85 | 1012.2 |
| 20260507001525 | 47 | 325 | 2.0 | 5.0 | 0.00 | 0.50 | 0.00 | 85 | 1012.2 |
| 20260507001008 | 47 | 343 | 2.0 | 7.0 | 0.00 | 0.50 | 0.00 | 85 | 1012.2 |
| 20260507000015 | 47 | 23 | 3.0 | 8.0 | 0.00 | 0.51 | 0.00 | 85 | 1012.1 |
| 20260506234504 | 47 | 352 | 4.0 | 8.0 | 0.00 | 0.51 | 0.00 | 86 | 1012.2 |
| 20260506234003 | 47 | 312 | 3.0 | 6.0 | 0.00 | 0.52 | 0.00 | 86 | 1012.2 |
| 20260506233502 | 47 | 334 | 2.0 | 6.0 | 0.00 | 0.52 | 0.00 | 86 | 1012.2 |
| 20260506233004 | 47 | 13 | 4.0 | 8.0 | 0.00 | 0.53 | 0.00 | 86 | 1012.2 |
| 20260506232505 | 47 | 300 | 2.0 | 8.0 | 0.00 | 0.53 | 0.00 | 86 | 1012.2 |
| 20260506232004 | 47 | 346 | 3.0 | 8.0 | 0.00 | 0.54 | 0.00 | 86 | 1012.1 |
| 20260506231508 | 47 | 352 | 3.0 | 5.0 | 0.00 | 0.54 | 0.00 | 86 | 1012.0 |
| 20260506231005 | 47 | 333 | 3.0 | 5.0 | 0.00 | 0.55 | 0.00 | 86 | 1012.1 |
| 20260506230503 | 47 | 303 | 1.0 | 4.0 | 0.00 | 0.55 | 0.00 | 85 | 1012.0 |
| 20260506230015 | 47 | 305 | 1.0 | 4.0 | 0.00 | 0.55 | 0.00 | 85 | 1012.0 |
| 20260506225507 | 47 | 298 | 3.0 | 4.0 | 0.00 | 0.55 | 0.00 | 85 | 1012.0 |
| 20260506225004 | 47 | 319 | 1.0 | 3.0 | 0.00 | 0.55 | 0.00 | 85 | 1012.0 |
| 20260506224511 | 47 | 300 | 1.0 | 3.0 | 0.00 | 0.55 | 0.00 | 85 | 1012.0 |
| 20260506224007 | 47 | 282 | 1.0 | 3.0 | 0.00 | 0.55 | 0.00 | 85 | 1011.9 |
| 20260506223006 | 47 | 277 | 1.0 | 2.0 | 0.00 | 0.56 | 0.00 | 85 | 1012.0 |
| 20260506215506 | 47 | 313 | 1.0 | 2.0 | 0.00 | 0.61 | 0.61 | 85 | 1011.9 |
| 20260506214518 | 47 | 292 | 1.0 | 3.0 | 0.00 | 0.62 | 0.61 | 85 | 1011.9 |
| 20260506214002 | 47 | 314 | 1.0 | 3.0 | 0.00 | 0.62 | 0.61 | 85 | 1011.8 |
| 20260506213506 | 47 | 328 | 2.0 | 3.0 | 0.00 | 0.62 | 0.61 | 85 | 1011.9 |
| 20260506213018 | 47 | 327 | 1.0 | 4.0 | 0.00 | 0.62 | 0.61 | 85 | 1011.8 |
| 20260506212507 | 47 | 326 | 2.0 | 4.0 | 0.00 | 0.62 | 0.61 | 85 | 1011.7 |
| 20260506212004 | 47 | 319 | 2.0 | 4.0 | 0.00 | 0.63 | 0.61 | 85 | 1011.7 |
| 20260506211510 | 48 | 313 | 2.0 | 3.0 | 0.00 | 0.63 | 0.61 | 84 | 1011.7 |
| 20260506210008 | 48 | 270 | 2.0 | 7.0 | 0.00 | 0.64 | 0.61 | 85 | 1011.6 |
| 20260506204509 | 48 | 333 | 2.0 | 5.0 | 0.00 | 0.64 | 0.61 | 85 | 1011.6 |
| 20260506202506 | 48 | 317 | 2.0 | 4.0 | 0.00 | 0.64 | 0.61 | 84 | 1011.5 |
| 20260506202010 | 47 | 304 | 2.0 | 3.0 | 0.00 | 0.64 | 0.61 | 84 | 1011.5 |
| 20260506201525 | 47 | 300 | 1.0 | 3.0 | 0.00 | 0.64 | 0.61 | 84 | 1011.5 |
| 20260506201003 | 47 | 324 | 1.0 | 2.0 | 0.00 | 0.64 | 0.61 | 84 | 1011.4 |
| 20260506200509 | 48 | 351 | 1.0 | 3.0 | 0.00 | 0.64 | 0.61 | 84 | 1011.4 |
| 20260506200018 | 48 | 352 | 2.0 | 4.0 | 0.00 | 0.64 | 0.61 | 83 | 1011.4 |
| 20260506195509 | 48 | 9 | 2.0 | 6.0 | 0.00 | 0.64 | 0.61 | 83 | 1011.3 |
| 20260506194507 | 48 | 352 | 2.0 | 4.0 | 0.00 | 0.64 | 0.61 | 83 | 1011.3 |
| 20260506193502 | 48 | 41 | 2.0 | 4.0 | 0.00 | 0.64 | 0.61 | 83 | 1011.2 |
| 20260506191510 | 48 | 360 | 2.0 | 4.0 | 0.00 | 0.64 | 0.61 | 83 | 1010.9 |
| 20260506191006 | 49 | 346 | 1.0 | 3.0 | 0.00 | 0.64 | 0.61 | 83 | 1010.9 |
| 20260506190008 | 49 | 5 | 2.0 | 3.0 | 0.00 | 0.64 | 0.61 | 83 | 1010.8 |
| 20260506185505 | 49 | 347 | 1.0 | 2.0 | 0.00 | 0.64 | 0.61 | 82 | 1010.8 |
| 20260506185011 | 49 | 33 | 0.0 | 2.0 | 0.00 | 0.64 | 0.61 | 82 | 1010.7 |
| 20260506184526 | 49 | 360 | 1.0 | 3.0 | 0.00 | 0.64 | 0.61 | 82 | 1010.8 |
| 20260506184007 | 49 | 9 | 1.0 | 3.0 | 0.00 | 0.64 | 0.61 | 82 | 1010.7 |
| 20260506183506 | 49 | 37 | 3.0 | 7.0 | 0.00 | 0.64 | 0.61 | 82 | 1010.7 |
| 20260506183011 | 49 | 20 | 2.0 | 7.0 | 0.00 | 0.64 | 0.61 | 82 | 1010.7 |
| 20260506182506 | 49 | 65 | 2.0 | 5.0 | 0.00 | 0.64 | 0.61 | 82 | 1010.6 |
| 20260506181514 | 49 | 46 | 3.0 | 6.0 | 0.00 | 0.64 | 0.61 | 82 | 1010.4 |
| 20260506181007 | 49 | 62 | 2.0 | 5.0 | 0.00 | 0.64 | 0.61 | 82 | 1010.3 |
| 20260506180506 | 49 | 69 | 1.0 | 4.0 | 0.00 | 0.64 | 0.61 | 82 | 1010.1 |
| 20260506180020 | 49 | 84 | 1.0 | 6.0 | 0.00 | 0.64 | 0.61 | 82 | 1010.1 |
| 20260506175505 | 49 | 62 | 3.0 | 7.0 | 0.00 | 0.64 | 0.61 | 82 | 1010.0 |
| 20260506174513 | 49 | 86 | 3.0 | 9.0 | 0.00 | 0.64 | 0.61 | 81 | 1010.0 |
| 20260506174012 | 49 | 92 | 5.0 | 11.0 | 0.00 | 0.64 | 0.61 | 81 | 1010.0 |
| 20260506173510 | 49 | 74 | 4.0 | 11.0 | 0.00 | 0.64 | 0.61 | 81 | 1010.0 |
| 20260506173013 | 49 | 66 | 4.0 | 11.0 | 0.00 | 0.64 | 0.61 | 81 | 1009.9 |
| 20260506172508 | 49 | 80 | 6.0 | 14.0 | 0.00 | 0.64 | 0.61 | 81 | 1009.8 |
| 20260506172011 | 49 | 17 | 6.0 | 14.0 | 0.00 | 0.64 | 0.61 | 81 | 1009.8 |
| 20260506171512 | 50 | 63 | 8.0 | 17.0 | 0.00 | 0.64 | 0.61 | 81 | 1009.7 |
| 20260506171009 | 49 | 35 | 8.0 | 14.0 | 0.00 | 0.64 | 0.61 | 81 | 1009.7 |
| 20260506170512 | 50 | 46 | 5.0 | 11.0 | 0.00 | 0.64 | 0.61 | 82 | 1009.7 |
| 20260506170018 | 49 | 31 | 5.0 | 12.0 | 0.00 | 0.64 | 0.61 | 83 | 1009.6 |
| 20260506165508 | 49 | 83 | 6.0 | 11.0 | 0.00 | 0.64 | 0.61 | 83 | 1009.6 |
| 20260506165010 | 49 | 360 | 6.0 | 9.0 | 0.00 | 0.64 | 0.61 | 83 | 1009.7 |
| 20260506164525 | 49 | 62 | 5.0 | 12.0 | 0.00 | 0.64 | 0.61 | 84 | 1009.7 |
| 20260506164008 | 49 | 75 | 7.0 | 13.0 | 0.00 | 0.64 | 0.61 | 84 | 1009.7 |
| 20260506163510 | 49 | 18 | 4.0 | 13.0 | 0.00 | 0.64 | 0.61 | 85 | 1009.6 |
| 20260506163023 | 49 | 72 | 4.0 | 12.0 | 0.00 | 0.64 | 0.61 | 85 | 1009.6 |
| 20260506162514 | 49 | 9 | 6.0 | 12.0 | 0.00 | 0.64 | 0.61 | 86 | 1009.6 |
| 20260506162012 | 49 | 45 | 5.0 | 12.0 | 0.00 | 0.64 | 0.61 | 87 | 1009.6 |
| 20260506161515 | 49 | 360 | 6.0 | 12.0 | 0.00 | 0.64 | 0.61 | 87 | 1009.6 |
| 20260506161013 | 49 | 107 | 4.0 | 10.0 | 0.00 | 0.64 | 0.61 | 87 | 1009.6 |
| 20260506160513 | 49 | 90 | 5.0 | 11.0 | 0.00 | 0.64 | 0.61 | 87 | 1009.5 |
| 20260506160015 | 49 | 67 | 4.0 | 11.0 | 0.00 | 0.64 | 0.61 | 88 | 1009.6 |
| 20260506155507 | 49 | 9 | 4.0 | 10.0 | 0.00 | 0.64 | 0.61 | 88 | 1009.6 |
| 20260506155010 | 49 | 79 | 5.0 | 8.0 | 0.00 | 0.64 | 0.61 | 88 | 1009.6 |
| 20260506154521 | 49 | 42 | 3.0 | 11.0 | 0.00 | 0.64 | 0.61 | 88 | 1009.6 |
| 20260506154009 | 49 | 15 | 4.0 | 11.0 | 0.00 | 0.64 | 0.61 | 88 | 1009.5 |
| 20260506153511 | 49 | 29 | 4.0 | 11.0 | 0.00 | 0.64 | 0.61 | 88 | 1009.5 |
| 20260506152506 | 49 | 9 | 3.0 | 8.0 | 0.00 | 0.64 | 0.61 | 88 | 1009.5 |
| 20260506152008 | 49 | 360 | 2.0 | 8.0 | 0.00 | 0.64 | 0.61 | 88 | 1009.5 |
| 20260506151523 | 49 | 360 | 4.0 | 8.0 | 0.00 | 0.64 | 0.61 | 88 | 1009.3 |
| 20260506151008 | 49 | 360 | 2.0 | 9.0 | 0.00 | 0.64 | 0.61 | 88 | 1009.4 |
| 20260506150508 | 49 | 47 | 5.0 | 9.0 | 0.00 | 0.64 | 0.61 | 88 | 1009.4 |
| 20260506150022 | 49 | 339 | 2.0 | 8.0 | 0.00 | 0.64 | 0.61 | 88 | 1009.4 |
| 20260506145514 | 49 | 9 | 2.0 | 8.0 | 0.00 | 0.64 | 0.61 | 88 | 1009.3 |
| 20260506145010 | 49 | 50 | 3.0 | 8.0 | 0.00 | 0.64 | 0.61 | 88 | 1009.3 |
| 20260506144511 | 49 | 360 | 3.0 | 7.0 | 0.00 | 0.64 | 0.61 | 88 | 1009.2 |
| 20260506144003 | 48 | 360 | 2.0 | 7.0 | 0.00 | 0.64 | 0.61 | 88 | 1009.2 |
| 20260506143509 | 49 | 343 | 4.0 | 7.0 | 0.00 | 0.64 | 0.61 | 88 | 1009.2 |
| 20260506143020 | 48 | 315 | 3.0 | 12.0 | 0.00 | 0.64 | 0.61 | 88 | 1009.2 |
| 20260506142504 | 48 | 36 | 5.0 | 11.0 | 0.00 | 0.64 | 0.61 | 89 | 1009.2 |
| 20260506142004 | 48 | 26 | 5.0 | 9.0 | 0.00 | 0.64 | 0.61 | 88 | 1009.2 |
| 20260506141506 | 48 | 48 | 3.0 | 9.0 | 0.00 | 0.64 | 0.61 | 88 | 1009.3 |
| 20260506141006 | 48 | 50 | 3.0 | 8.0 | 0.00 | 0.64 | 0.61 | 88 | 1009.2 |
| 20260506140504 | 48 | 63 | 2.0 | 10.0 | 0.00 | 0.64 | 0.61 | 89 | 1009.3 |
| 20260506140010 | 48 | 86 | 5.0 | 10.0 | 0.00 | 0.64 | 0.61 | 89 | 1009.2 |
| 20260506135504 | 48 | 32 | 2.0 | 9.0 | 0.00 | 0.64 | 0.61 | 89 | 1009.2 |
| 20260506135003 | 48 | 49 | 4.0 | 9.0 | 0.00 | 0.64 | 0.61 | 89 | 1009.1 |
| 20260506134511 | 48 | 17 | 3.0 | 10.0 | 0.00 | 0.64 | 0.61 | 89 | 1009.2 |
| 20260506134010 | 48 | 14 | 4.0 | 10.0 | 0.00 | 0.64 | 0.61 | 89 | 1009.1 |
| 20260506133509 | 48 | 360 | 4.0 | 10.0 | 0.00 | 0.64 | 0.61 | 90 | 1009.1 |
| 20260506133006 | 49 | 22 | 6.0 | 10.0 | 0.00 | 0.64 | 0.61 | 90 | 1009.1 |
| 20260506132511 | 49 | 360 | 4.0 | 10.0 | 0.00 | 0.64 | 0.61 | 90 | 1009.1 |
| 20260506132009 | 49 | 360 | 5.0 | 10.0 | 0.00 | 0.64 | 0.61 | 90 | 1009.0 |
| 20260506130503 | 49 | 36 | 4.0 | 11.0 | 0.00 | 0.64 | 0.61 | 90 | 1008.9 |
| 20260506130006 | 49 | 13 | 4.0 | 11.0 | 0.00 | 0.64 | 0.61 | 91 | 1008.9 |
| 20260506125503 | 48 | 78 | 4.0 | 9.0 | 0.00 | 0.63 | 0.60 | 91 | 1008.9 |
| 20260506125003 | 48 | 19 | 3.0 | 6.0 | 0.00 | 0.63 | 0.60 | 91 | 1008.8 |
| 20260506124004 | 48 | 329 | 2.0 | 10.0 | 0.00 | 0.63 | 0.60 | 91 | 1008.8 |
| 20260506123504 | 48 | 360 | 4.0 | 12.0 | 0.00 | 0.63 | 0.60 | 91 | 1008.8 |
| 20260506123024 | 48 | 350 | 3.0 | 12.0 | 0.00 | 0.63 | 0.60 | 91 | 1008.8 |
| 20260506122507 | 48 | 36 | 4.0 | 12.0 | 0.00 | 0.63 | 0.60 | 91 | 1008.8 |
| 20260506122003 | 48 | 72 | 3.0 | 12.0 | 0.00 | 0.63 | 0.60 | 91 | 1008.8 |
| 20260506121514 | 48 | 25 | 5.0 | 12.0 | 0.00 | 0.63 | 0.60 | 91 | 1008.7 |
| 20260506121008 | 48 | 60 | 4.0 | 9.0 | 0.00 | 0.63 | 0.60 | 91 | 1008.7 |
| 20260506120511 | 48 | 9 | 5.0 | 9.0 | 0.00 | 0.63 | 0.60 | 91 | 1008.6 |
| 20260506120022 | 48 | 5 | 3.0 | 8.0 | 0.00 | 0.64 | 0.60 | 91 | 1008.6 |
| 20260506115514 | 48 | 31 | 3.0 | 8.0 | 0.00 | 0.64 | 0.60 | 91 | 1008.5 |
| 20260506115012 | 48 | 36 | 3.0 | 8.0 | 0.00 | 0.64 | 0.60 | 91 | 1008.6 |
| 20260506114518 | 48 | 30 | 4.0 | 9.0 | 0.00 | 0.64 | 0.60 | 91 | 1008.5 |
| 20260506114009 | 48 | 78 | 3.0 | 9.0 | 0.00 | 0.64 | 0.60 | 91 | 1008.5 |
| 20260506113507 | 48 | 30 | 4.0 | 8.0 | 0.00 | 0.64 | 0.60 | 91 | 1008.5 |
| 20260506113014 | 48 | 5 | 3.0 | 11.0 | 0.00 | 0.65 | 0.60 | 91 | 1008.5 |
| 20260506112505 | 48 | 5 | 4.0 | 10.0 | 0.00 | 0.65 | 0.60 | 91 | 1008.4 |
| 20260506112007 | 48 | 22 | 2.0 | 10.0 | 0.00 | 0.65 | 0.60 | 91 | 1008.3 |
| 20260506111518 | 47 | 352 | 3.0 | 8.0 | 0.01 | 0.65 | 0.60 | 91 | 1008.3 |
| 20260506111008 | 47 | 92 | 4.0 | 11.0 | 0.01 | 0.65 | 0.60 | 91 | 1008.3 |
| 20260506110509 | 47 | 27 | 3.0 | 11.0 | 0.01 | 0.65 | 0.60 | 91 | 1008.3 |
| 20260506110018 | 47 | 15 | 5.0 | 10.0 | 0.00 | 0.64 | 0.59 | 91 | 1008.3 |
| 20260506105507 | 47 | 10 | 4.0 | 10.0 | 0.00 | 0.64 | 0.59 | 91 | 1008.2 |
| 20260506104524 | 47 | 61 | 3.0 | 12.0 | 0.01 | 0.64 | 0.59 | 91 | 1008.2 |
| 20260506104010 | 47 | 23 | 5.0 | 10.0 | 0.01 | 0.64 | 0.59 | 91 | 1008.1 |
| 20260506103511 | 47 | 12 | 3.0 | 9.0 | 0.01 | 0.64 | 0.59 | 91 | 1008.1 |
| 20260506103008 | 47 | 318 | 4.0 | 13.0 | 0.01 | 0.64 | 0.59 | 91 | 1008.1 |
| 20260506102507 | 47 | 360 | 5.0 | 13.0 | 0.02 | 0.64 | 0.59 | 91 | 1008.0 |
| 20260506102005 | 47 | 352 | 6.0 | 13.0 | 0.02 | 0.64 | 0.59 | 91 | 1008.0 |
| 20260506101511 | 47 | 45 | 3.0 | 12.0 | 0.01 | 0.63 | 0.59 | 92 | 1008.0 |
| 20260506100514 | 47 | 59 | 3.0 | 9.0 | 0.01 | 0.63 | 0.59 | 92 | 1007.9 |
| 20260506100021 | 47 | 331 | 3.0 | 11.0 | 0.01 | 0.63 | 0.59 | 92 | 1007.9 |
| 20260506095010 | 46 | 5 | 4.0 | 10.0 | 0.01 | 0.63 | 0.59 | 92 | 1007.8 |
| 20260506094527 | 46 | 9 | 3.0 | 11.0 | 0.01 | 0.62 | 0.58 | 92 | 1007.8 |
| 20260506094004 | 46 | 360 | 4.0 | 14.0 | 0.01 | 0.62 | 0.58 | 92 | 1007.8 |
| 20260506093031 | 46 | 340 | 3.0 | 12.0 | 0.01 | 0.62 | 0.58 | 92 | 1007.8 |
| 20260506092510 | 46 | 352 | 4.0 | 10.0 | 0.00 | 0.62 | 0.57 | 92 | 1007.7 |
| 20260506091010 | 46 | 23 | 6.0 | 14.0 | 0.01 | 0.62 | 0.57 | 92 | 1007.6 |
| 20260506090509 | 45 | 21 | 4.0 | 13.0 | 0.01 | 0.62 | 0.57 | 92 | 1007.6 |
| 20260506085511 | 45 | 32 | 7.0 | 12.0 | 0.01 | 0.62 | 0.57 | 92 | 1007.6 |
| 20260506085008 | 45 | 15 | 4.0 | 16.0 | 0.01 | 0.62 | 0.57 | 92 | 1007.6 |
| 20260506084515 | 45 | 41 | 7.0 | 16.0 | 0.00 | 0.61 | 0.56 | 92 | 1007.6 |
| 20260506084008 | 45 | 38 | 3.0 | 12.0 | 0.01 | 0.61 | 0.56 | 92 | 1007.6 |
| 20260506083508 | 45 | 37 | 7.0 | 13.0 | 0.01 | 0.61 | 0.56 | 92 | 1007.5 |
| 20260506083029 | 45 | 350 | 7.0 | 13.0 | 0.01 | 0.61 | 0.56 | 92 | 1007.5 |
| 20260506082513 | 45 | 26 | 5.0 | 14.0 | 0.02 | 0.61 | 0.56 | 92 | 1007.6 |
| 20260506082012 | 45 | 88 | 5.0 | 14.0 | 0.02 | 0.61 | 0.56 | 92 | 1007.5 |
| 20260506081526 | 45 | 13 | 5.0 | 14.0 | 0.02 | 0.61 | 0.56 | 92 | 1007.4 |
| 20260506081007 | 45 | 352 | 9.0 | 14.0 | 0.01 | 0.60 | 0.55 | 93 | 1007.4 |
| 20260506073507 | 46 | 43 | 4.0 | 9.0 | 0.03 | 0.59 | 0.55 | 93 | 1007.2 |
| 20260506073021 | 46 | 87 | 2.0 | 13.0 | 0.03 | 0.59 | 0.55 | 93 | 1007.2 |
| 20260506072512 | 46 | 360 | 4.0 | 13.0 | 0.02 | 0.59 | 0.54 | 93 | 1007.2 |
| 20260506072011 | 46 | 59 | 8.0 | 13.0 | 0.03 | 0.59 | 0.54 | 93 | 1007.1 |
| 20260506071519 | 46 | 30 | 4.0 | 9.0 | 0.03 | 0.59 | 0.54 | 93 | 1007.1 |
| 20260506071007 | 46 | 47 | 3.0 | 11.0 | 0.03 | 0.59 | 0.54 | 93 | 1007.1 |
| 20260506070513 | 46 | 46 | 4.0 | 11.0 | 0.02 | 0.58 | 0.53 | 93 | 1007.1 |
| 20260506062511 | 47 | 30 | 4.0 | 11.0 | 0.03 | 0.57 | 0.51 | 93 | 1006.9 |
| 20260506062013 | 47 | 360 | 4.0 | 11.0 | 0.03 | 0.56 | 0.51 | 93 | 1006.7 |
| 20260506061521 | 47 | 345 | 4.0 | 10.0 | 0.03 | 0.57 | 0.51 | 93 | 1006.7 |
| 20260506061010 | 47 | 47 | 3.0 | 10.0 | 0.04 | 0.57 | 0.51 | 93 | 1006.7 |
| 20260506051008 | 47 | 5 | 4.0 | 7.0 | 0.07 | 0.53 | 0.46 | 93 | 1006.6 |
| 20260506050507 | 47 | 15 | 3.0 | 8.0 | 0.07 | 0.52 | 0.45 | 93 | 1006.5 |
| 20260506045004 | 47 | 333 | 3.0 | 8.0 | 0.07 | 0.51 | 0.44 | 93 | 1006.6 |
| 20260506044512 | 47 | 331 | 5.0 | 10.0 | 0.07 | 0.50 | 0.43 | 93 | 1006.6 |
| 20260506044007 | 47 | 5 | 5.0 | 11.0 | 0.07 | 0.49 | 0.42 | 93 | 1006.6 |
| 20260506043510 | 47 | 328 | 4.0 | 11.0 | 0.07 | 0.49 | 0.42 | 93 | 1006.6 |
| 20260506043010 | 47 | 25 | 4.0 | 11.0 | 0.07 | 0.48 | 0.41 | 93 | 1006.6 |
| 20260506042508 | 47 | 315 | 6.0 | 9.0 | 0.07 | 0.48 | 0.40 | 93 | 1006.7 |
| 20260506042013 | 47 | 350 | 4.0 | 9.0 | 0.06 | 0.47 | 0.40 | 93 | 1006.7 |
| 20260506041519 | 47 | 5 | 5.0 | 11.0 | 0.06 | 0.46 | 0.39 | 93 | 1006.7 |
| 20260506040505 | 48 | 340 | 6.0 | 9.0 | 0.06 | 0.45 | 0.38 | 93 | 1006.7 |
| 20260506040023 | 48 | 352 | 5.0 | 11.0 | 0.05 | 0.44 | 0.37 | 93 | 1006.7 |
| 20260506035504 | 48 | 302 | 6.0 | 11.0 | 0.05 | 0.44 | 0.37 | 93 | 1006.7 |
| 20260506035009 | 48 | 309 | 5.0 | 10.0 | 0.04 | 0.44 | 0.36 | 93 | 1006.7 |
| 20260506034518 | 48 | 352 | 5.0 | 10.0 | 0.05 | 0.44 | 0.36 | 93 | 1006.7 |
| 20260506034005 | 48 | 333 | 4.0 | 10.0 | 0.04 | 0.43 | 0.35 | 93 | 1006.7 |
| 20260506033507 | 48 | 342 | 5.0 | 10.0 | 0.04 | 0.42 | 0.34 | 93 | 1006.8 |
| 20260506033010 | 48 | 360 | 3.0 | 8.0 | 0.05 | 0.42 | 0.34 | 93 | 1006.8 |
| 20260506032506 | 48 | 5 | 5.0 | 9.0 | 0.04 | 0.41 | 0.33 | 93 | 1006.9 |
| 20260506031523 | 48 | 34 | 2.0 | 8.0 | 0.05 | 0.40 | 0.33 | 93 | 1006.8 |
| 20260506031009 | 48 | 360 | 3.0 | 8.0 | 0.05 | 0.40 | 0.33 | 93 | 1006.9 |
| 20260506030509 | 48 | 5 | 4.0 | 10.0 | 0.05 | 0.40 | 0.32 | 93 | 1006.9 |
| 20260506030009 | 48 | 336 | 5.0 | 10.0 | 0.06 | 0.40 | 0.32 | 93 | 1007.0 |
| 20260506025510 | 48 | 350 | 3.0 | 9.0 | 0.06 | 0.39 | 0.31 | 93 | 1007.0 |
| 20260506025010 | 48 | 59 | 3.0 | 9.0 | 0.07 | 0.39 | 0.31 | 93 | 1007.1 |
| 20260506024507 | 48 | 11 | 3.0 | 9.0 | 0.07 | 0.38 | 0.30 | 93 | 1007.1 |
| 20260506024004 | 48 | 70 | 5.0 | 9.0 | 0.07 | 0.38 | 0.30 | 93 | 1007.1 |
| 20260506023505 | 48 | 338 | 4.0 | 9.0 | 0.08 | 0.37 | 0.29 | 93 | 1007.1 |
| 20260506022509 | 48 | 15 | 4.0 | 9.0 | 0.09 | 0.37 | 0.29 | 93 | 1007.1 |
| 20260506022009 | 48 | 56 | 2.0 | 8.0 | 0.09 | 0.36 | 0.28 | 93 | 1007.1 |
| 20260506021503 | 48 | 43 | 4.0 | 9.0 | 0.09 | 0.35 | 0.27 | 93 | 1007.2 |
| 20260506021006 | 48 | 350 | 2.0 | 9.0 | 0.09 | 0.35 | 0.27 | 93 | 1007.2 |
| 20260506020506 | 48 | 333 | 2.0 | 8.0 | 0.09 | 0.34 | 0.26 | 93 | 1007.3 |
| 20260506020018 | 48 | 9 | 3.0 | 12.0 | 0.09 | 0.33 | 0.25 | 93 | 1007.2 |